Time;durP1;ratioP1;P1;durP2;ratioP2;P2;SDS_P1;SDS_P2;PMS_P1;PMS_P2;Temp;Humidity;BMP_temperature;BMP_pressure;BME280_temperature;BME280_humidity;BME280_pressure;Samples;Min_cycle;Max_cycle;Signal;HPM_P1;HPM_P2
2022/08/03 00:01:34;;;;;;;3.85;2.53;;;;;;;21.04;62.49;100893.13;6023541;28;20775;-67
2022/08/03 00:04:29;;;;;;;6.45;2.45;;;;;;;21.16;62.92;100910.38;6024357;28;20109;-67
2022/08/03 00:07:24;;;;;;;6.63;2.40;;;;;;;21.11;62.59;100896.69;6022129;28;20458;-67
2022/08/03 00:10:20;;;;;;;4.43;2.50;;;;;;;21.04;62.69;100898.50;6023549;28;20153;-66
2022/08/03 00:13:15;;;;;;;4.77;2.60;;;;;;;20.91;62.88;100893.13;6020088;28;20358;-66
2022/08/03 00:16:10;;;;;;;5.90;2.70;;;;;;;20.90;63.07;100892.31;6020909;28;20022;-66
2022/08/03 00:19:06;;;;;;;5.68;2.35;;;;;;;20.93;63.20;100899.13;6023662;28;20269;-66
2022/08/03 00:22:01;;;;;;;3.40;2.37;;;;;;;20.86;63.14;100898.34;6017939;28;20062;-65
2022/08/03 00:24:56;;;;;;;4.03;2.83;;;;;;;20.84;63.76;100901.25;6026243;28;20023;-66
2022/08/03 00:27:52;;;;;;;3.50;2.70;;;;;;;20.69;64.42;100914.94;6021741;28;20030;-65
2022/08/03 00:30:47;;;;;;;4.17;2.60;;;;;;;20.60;64.67;100909.97;6023387;28;20067;-66
2022/08/03 00:33:42;;;;;;;4.03;2.33;;;;;;;20.62;64.61;100903.31;6023056;28;20318;-66
2022/08/03 00:36:38;;;;;;;5.83;2.70;;;;;;;20.53;65.05;100890.25;6021585;28;20289;-64
2022/08/03 00:39:33;;;;;;;5.88;2.58;;;;;;;20.63;66.16;100888.78;6023898;28;20272;-66
2022/08/03 00:42:28;;;;;;;5.03;2.70;;;;;;;20.52;66.52;100897.50;6022576;28;20580;-66
2022/08/03 00:45:26;;;;;;;5.83;2.77;;;;;;;20.48;67.73;100901.66;6023812;28;20034;-65
2022/08/03 00:48:22;;;;;;;3.63;2.05;;;;;;;20.55;67.45;100901.63;6016882;28;20057;-65
2022/08/03 00:51:19;;;;;;;6.30;2.47;;;;;;;20.49;66.56;100895.19;6022301;28;20031;-65
2022/08/03 00:54:16;;;;;;;3.88;2.60;;;;;;;20.51;66.30;100900.41;6019266;28;20420;-66
2022/08/03 00:57:11;;;;;;;6.90;2.72;;;;;;;20.36;65.85;100892.50;6020826;28;20034;-66
2022/08/03 01:00:08;;;;;;;4.53;2.60;;;;;;;20.20;66.45;100882.09;6021628;28;20065;-66
2022/08/03 01:03:05;;;;;;;6.72;2.90;;;;;;;20.23;66.38;100895.16;6022032;28;20833;-66
2022/08/03 01:06:12;;;;;;;4.45;2.45;;;;;;;20.18;67.61;100890.38;6022343;28;20092;-63
2022/08/03 01:09:33;;;;;;;3.30;2.40;;;;;;;20.25;68.02;100893.09;6037100;28;20030;-65
2022/08/03 01:13:10;;;;;;;5.65;2.53;;;;;;;20.26;68.44;100892.06;6019245;28;20390;-65
2022/08/03 01:16:12;;;;;;;7.50;2.75;;;;;;;20.13;67.98;100886.63;6018851;28;20046;-65
2022/08/03 01:19:35;;;;;;;5.32;2.35;;;;;;;19.99;68.66;100896.53;6020084;28;20034;-65
2022/08/03 01:22:56;;;;;;;5.32;2.60;;;;;;;19.92;69.63;100887.59;6021211;28;20042;-66
2022/08/03 01:26:25;;;;;;;4.78;2.58;;;;;;;19.93;70.43;100900.03;6016830;28;20382;-66
2022/08/03 01:29:58;;;;;;;5.25;2.88;;;;;;;19.92;70.99;100897.56;6021190;28;20084;-66
2022/08/03 01:32:59;;;;;;;7.72;3.25;;;;;;;19.80;70.06;100883.84;6021170;28;20145;-66
2022/08/03 01:36:01;;;;;;;7.13;2.72;;;;;;;19.84;69.28;100897.75;6019898;28;20592;-66
2022/08/03 01:39:00;;;;;;;4.43;2.40;;;;;;;19.63;70.04;100895.16;6020297;28;20389;-66
2022/08/03 01:41:58;;;;;;;8.85;2.83;;;;;;;19.75;70.94;100889.00;6021150;28;20538;-63
2022/08/03 01:44:55;;;;;;;7.55;2.97;;;;;;;19.71;70.01;100893.13;6019976;28;20542;-65
2022/08/03 01:47:51;;;;;;;5.72;2.90;;;;;;;19.66;69.90;100890.22;6017575;28;20038;-65
2022/08/03 01:50:48;;;;;;;6.13;3.20;;;;;;;19.52;70.62;100872.34;6030157;28;20042;-66
2022/08/03 01:53:43;;;;;;;4.60;2.80;;;;;;;19.61;70.71;100898.06;6020190;28;20129;-67
2022/08/03 01:56:39;;;;;;;4.72;2.83;;;;;;;19.60;71.39;100891.00;6020295;28;20042;-65
2022/08/03 01:59:35;;;;;;;5.38;3.13;;;;;;;19.63;71.46;100892.47;6019950;28;20441;-67
2022/08/03 02:02:31;;;;;;;6.68;3.00;;;;;;;19.64;70.41;100900.34;6020722;28;20112;-66
2022/08/03 02:05:27;;;;;;;5.10;3.35;;;;;;;19.58;69.79;100891.22;6019220;28;20041;-65
2022/08/03 02:08:24;;;;;;;4.78;2.83;;;;;;;19.29;70.06;100882.53;6003185;28;20042;-67
2022/08/03 02:11:19;;;;;;;9.95;3.00;;;;;;;19.13;70.74;100885.56;6019872;28;20520;-64
2022/08/03 02:14:16;;;;;;;4.43;2.83;;;;;;;18.99;71.07;100879.25;6034512;28;20030;-64
2022/08/03 02:17:11;;;;;;;5.80;2.67;;;;;;;19.17;70.46;100884.13;6021879;28;20420;-66
2022/08/03 02:20:11;;;;;;;3.75;2.65;;;;;;;18.95;71.25;100881.50;6011236;28;20042;-67
2022/08/03 02:23:07;;;;;;;5.25;3.47;;;;;;;19.00;71.28;100897.88;6020858;28;20525;-66
2022/08/03 02:26:06;;;;;;;4.95;2.92;;;;;;;18.83;71.93;100893.81;6020729;28;20033;-66
2022/08/03 02:29:17;;;;;;;5.65;3.40;;;;;;;18.98;71.62;100897.25;6021072;28;20045;-65
2022/08/03 02:32:16;;;;;;;7.40;3.83;;;;;;;18.81;72.04;100898.56;6034625;28;20070;-66
2022/08/03 02:35:14;;;;;;;9.23;3.33;;;;;;;18.73;72.25;100887.94;6018988;28;20355;-66
2022/08/03 02:38:10;;;;;;;4.78;3.10;;;;;;;18.77;72.13;100873.09;6020234;28;20034;-67
2022/08/03 02:41:13;;;;;;;7.75;2.85;;;;;;;18.86;71.61;100879.97;6019758;28;20101;-66
2022/08/03 02:44:10;;;;;;;6.80;3.45;;;;;;;19.10;70.99;100883.25;6019659;28;20037;-66
2022/08/03 02:47:08;;;;;;;9.68;3.28;;;;;;;18.95;71.78;100870.75;6017393;28;20045;-65
2022/08/03 02:50:04;;;;;;;7.45;3.15;;;;;;;19.04;71.55;100882.19;6034730;28;20498;-66
2022/08/03 02:53:01;;;;;;;4.55;2.90;;;;;;;19.15;71.21;100888.88;6021184;28;20030;-66
2022/08/03 02:55:57;;;;;;;6.07;3.35;;;;;;;19.13;70.99;100878.31;6017355;28;20038;-65
2022/08/03 02:58:53;;;;;;;10.07;3.13;;;;;;;19.04;71.34;100884.88;6020440;28;20373;-65
2022/08/03 03:01:49;;;;;;;6.00;3.05;;;;;;;19.01;70.85;100856.53;6019646;28;20030;-65
2022/08/03 03:04:45;;;;;;;4.43;2.90;;;;;;;19.01;71.28;100864.59;6020012;28;20033;-66
2022/08/03 03:07:41;;;;;;;6.70;3.10;;;;;;;18.92;70.99;100865.75;6019689;28;20114;-65
2022/08/03 03:10:36;;;;;;;4.93;3.22;;;;;;;18.78;71.52;100864.00;6039548;28;20109;-65
2022/08/03 03:13:32;;;;;;;4.23;2.63;;;;;;;18.79;71.61;100860.31;6023552;28;20085;-65
2022/08/03 03:16:29;;;;;;;5.88;3.10;;;;;;;18.84;71.59;100873.13;6022217;28;20030;-65
2022/08/03 03:19:24;;;;;;;8.63;3.35;;;;;;;18.80;72.32;100872.72;6024905;28;20041;-65
2022/08/03 03:22:20;;;;;;;5.03;3.03;;;;;;;18.70;72.28;100866.84;6029529;28;20038;-66
2022/08/03 03:25:16;;;;;;;5.00;3.33;;;;;;;18.69;71.69;100858.97;6023000;28;20281;-67
2022/08/03 03:28:11;;;;;;;6.75;3.30;;;;;;;18.57;72.79;100874.78;6040123;28;20026;-65
2022/08/03 03:31:07;;;;;;;4.82;3.30;;;;;;;18.55;73.03;100862.59;6022569;28;20109;-64
2022/08/03 03:34:03;;;;;;;8.82;3.42;;;;;;;18.45;72.63;100868.28;6018423;28;20043;-66
2022/08/03 03:37:00;;;;;;;8.18;3.70;;;;;;;18.64;73.14;100875.69;6023523;28;20146;-65
2022/08/03 03:39:55;;;;;;;5.68;3.63;;;;;;;18.55;72.56;100863.41;6023030;28;20030;-66
2022/08/03 03:42:51;;;;;;;5.73;3.03;;;;;;;18.54;72.22;100883.25;6024200;28;20041;-66
2022/08/03 03:45:46;;;;;;;7.13;3.40;;;;;;;18.44;72.40;100872.81;6021765;28;20113;-65
2022/08/03 03:48:42;;;;;;;8.10;3.30;;;;;;;18.51;71.85;100869.38;6024691;28;20470;-65
2022/08/03 03:51:37;;;;;;;5.90;2.92;;;;;;;18.55;72.11;100870.66;6038131;28;20064;-65
2022/08/03 03:54:42;;;;;;;5.93;3.43;;;;;;;18.64;72.00;100875.69;6023394;28;20088;-64
2022/08/03 03:57:37;;;;;;;6.55;3.30;;;;;;;18.68;72.56;100874.28;6020933;28;20027;-63
2022/08/03 04:00:33;;;;;;;5.03;3.23;;;;;;;18.63;72.74;100873.19;6024336;28;20504;-65
2022/08/03 04:03:29;;;;;;;11.63;3.17;;;;;;;18.61;73.22;100875.25;6014492;28;20081;-66
2022/08/03 04:12:53;;;;;;;5.63;3.00;;;;;;;18.74;72.42;100875.34;6020988;28;20541;-64
2022/08/03 04:15:49;;;;;;;5.53;2.95;;;;;;;18.80;73.28;100877.25;6023093;28;20030;-67
2022/08/03 04:18:48;;;;;;;4.95;2.80;;;;;;;18.79;71.31;100871.06;6026478;28;20045;-64
2022/08/03 04:21:47;;;;;;;6.00;2.75;;;;;;;18.94;70.87;100874.44;6022758;28;20044;-65
2022/08/03 04:24:48;;;;;;;5.82;2.53;;;;;;;19.37;69.00;100880.53;6021362;28;20068;-65
2022/08/03 04:27:45;;;;;;;4.55;3.00;;;;;;;19.84;67.23;100887.78;6018830;28;20038;-64
2022/08/03 04:30:46;;;;;;;4.22;3.00;;;;;;;20.31;66.09;100881.50;6019118;28;20030;-64
2022/08/03 04:33:43;;;;;;;6.68;3.05;;;;;;;20.58;65.80;100885.06;6021963;28;20124;-65
2022/08/03 04:36:44;;;;;;;5.13;2.70;;;;;;;20.95;63.27;100876.34;6038306;28;20038;-64
2022/08/03 04:39:41;;;;;;;6.63;2.80;;;;;;;21.32;62.06;100881.06;6021398;28;20026;-65
2022/08/03 04:42:36;;;;;;;6.60;2.78;;;;;;;21.61;61.02;100892.38;6021674;28;20726;-65
2022/08/03 04:45:32;;;;;;;9.80;2.90;;;;;;;21.87;60.63;100885.03;6037774;28;20045;-65
2022/08/03 04:48:28;;;;;;;4.78;2.75;;;;;;;22.13;58.98;100891.31;6023849;28;20041;-63
2022/08/03 04:51:24;;;;;;;7.23;2.77;;;;;;;22.23;58.26;100889.81;6019959;28;20042;-67
2022/08/03 04:54:19;;;;;;;4.65;2.70;;;;;;;21.86;59.70;100877.09;6022007;28;20281;-68
2022/08/03 04:57:14;;;;;;;5.87;2.90;;;;;;;21.34;59.84;100875.44;6021880;28;20034;-66
2022/08/03 05:00:10;;;;;;;7.63;2.70;;;;;;;20.91;61.15;100875.09;6020764;28;20288;-65
2022/08/03 05:03:07;;;;;;;4.53;2.42;;;;;;;21.77;58.86;100897.28;6022075;28;20355;-66
2022/08/03 05:06:02;;;;;;;3.78;2.30;;;;;;;21.88;58.03;100889.38;6021807;28;20062;-66
2022/08/03 05:08:58;;;;;;;5.68;2.80;;;;;;;21.88;57.49;100888.56;6022693;28;20486;-65
2022/08/03 05:11:53;;;;;;;3.83;2.53;;;;;;;22.05;56.88;100889.72;6022751;28;20257;-66
2022/08/03 05:14:48;;;;;;;3.13;2.33;;;;;;;21.55;59.01;100890.56;6021685;28;20277;-66
2022/08/03 05:17:44;;;;;;;4.57;2.87;;;;;;;21.96;57.67;100893.69;6022812;28;20297;-64
2022/08/03 05:20:39;;;;;;;4.20;2.43;;;;;;;22.12;56.41;100890.53;6020922;28;20057;-65
2022/08/03 05:23:34;;;;;;;3.50;2.50;;;;;;;22.10;56.24;100898.00;6021742;28;20380;-65
2022/08/03 05:26:30;;;;;;;8.02;2.88;;;;;;;21.68;57.64;100902.13;6021202;28;20036;-65
2022/08/03 05:29:25;;;;;;;4.38;2.65;;;;;;;21.72;56.20;100894.41;6021609;28;20034;-65
2022/08/03 05:32:21;;;;;;;4.47;2.20;;;;;;;21.86;55.59;100890.63;6021089;28;20476;-65
2022/08/03 05:35:16;;;;;;;6.83;2.37;;;;;;;22.74;53.03;100899.66;6020914;28;20030;-65
2022/08/03 05:38:14;;;;;;;3.20;2.20;;;;;;;22.29;53.96;100888.94;6021472;28;20088;-64
2022/08/03 05:41:09;;;;;;;4.50;2.10;;;;;;;22.88;53.06;100895.81;6018329;28;20125;-64
2022/08/03 05:44:05;;;;;;;5.70;1.87;;;;;;;23.42;51.65;100893.19;6020610;28;20060;-64
2022/08/03 05:47:00;;;;;;;5.40;2.47;;;;;;;23.24;51.29;100885.03;6020684;28;20030;-64
2022/08/03 05:49:55;;;;;;;5.17;1.90;;;;;;;23.54;50.66;100885.97;6021331;28;20038;-63
2022/08/03 05:52:54;;;;;;;4.73;2.20;;;;;;;23.94;49.83;100878.19;6020528;28;20110;-64
2022/08/03 05:55:49;;;;;;;2.65;1.83;;;;;;;23.84;50.46;100891.41;6021401;28;20340;-63
2022/08/03 05:58:46;;;;;;;3.27;2.03;;;;;;;24.74;48.09;100886.75;6020859;28;20069;-65
2022/08/03 06:01:41;;;;;;;4.03;2.25;;;;;;;24.45;47.65;100898.50;6018996;28;20281;-63
2022/08/03 06:04:36;;;;;;;5.13;1.90;;;;;;;24.23;48.78;100884.66;6019790;28;20049;-63
2022/08/03 06:07:32;;;;;;;4.32;1.90;;;;;;;24.45;48.53;100893.91;6021172;28;20607;-63
2022/08/03 06:10:27;;;;;;;3.43;2.03;;;;;;;24.21;48.87;100884.06;6020582;28;20042;-64
2022/08/03 06:13:22;;;;;;;4.83;1.93;;;;;;;24.57;48.23;100878.47;6018538;28;20050;-63
2022/08/03 06:16:18;;;;;;;5.47;2.10;;;;;;;24.84;47.66;100885.16;6021433;28;20054;-66
2022/08/03 06:19:13;;;;;;;5.40;2.08;;;;;;;25.32;45.94;100879.47;6019570;28;20036;-66
2022/08/03 06:22:08;;;;;;;5.63;1.97;;;;;;;24.93;47.03;100882.91;6021374;28;20030;-67
2022/08/03 06:25:05;;;;;;;4.10;2.10;;;;;;;24.68;48.17;100885.81;6020212;28;20104;-64
2022/08/03 06:28:00;;;;;;;2.80;1.83;;;;;;;25.37;46.90;100892.31;6016391;28;20372;-63
2022/08/03 06:30:55;;;;;;;7.35;1.92;;;;;;;26.06;45.58;100879.63;6019300;28;20034;-63
2022/08/03 06:33:51;;;;;;;4.53;2.00;;;;;;;26.57;44.76;100891.19;6020864;28;20076;-64
2022/08/03 06:36:48;;;;;;;3.85;1.70;;;;;;;26.17;46.98;100893.22;6023223;28;20598;-64
2022/08/03 06:39:44;;;;;;;3.08;1.90;;;;;;;26.43;45.99;100886.31;6021480;28;20305;-65
2022/08/03 06:42:40;;;;;;;5.30;2.47;;;;;;;27.28;44.54;100896.94;6022681;28;20038;-65
2022/08/03 06:45:35;;;;;;;2.92;1.95;;;;;;;27.72;42.87;100885.03;6025288;28;20026;-65
2022/08/03 06:48:31;;;;;;;4.83;2.00;;;;;;;27.51;43.85;100902.19;6026044;28;20489;-65
2022/08/03 06:51:26;;;;;;;3.28;2.20;;;;;;;27.35;43.66;100892.13;6025800;28;20049;-64
2022/08/03 06:54:23;;;;;;;3.50;2.03;;;;;;;27.24;43.42;100904.78;6025989;28;20101;-63
2022/08/03 06:57:18;;;;;;;2.72;1.65;;;;;;;27.35;44.31;100908.47;6017224;28;20374;-65
2022/08/03 07:00:14;;;;;;;3.40;1.77;;;;;;;27.88;42.83;100897.75;6023866;28;20045;-66
2022/08/03 07:03:09;;;;;;;4.90;1.80;;;;;;;27.34;42.88;100909.56;6025649;28;20676;-64
2022/08/03 07:06:05;;;;;;;4.50;1.70;;;;;;;27.11;43.26;100895.06;6025909;28;20029;-65
2022/08/03 07:09:00;;;;;;;4.47;2.05;;;;;;;27.74;43.55;100912.84;6025992;28;20048;-65
2022/08/03 07:11:56;;;;;;;2.60;1.80;;;;;;;28.00;41.71;100906.59;6022791;28;20045;-64
2022/08/03 07:14:51;;;;;;;2.95;1.92;;;;;;;27.65;42.23;100911.63;6024941;28;20367;-64
2022/08/03 07:17:46;;;;;;;3.23;2.17;;;;;;;27.63;41.71;100925.53;6021162;28;20042;-65
2022/08/03 07:20:42;;;;;;;2.38;1.80;;;;;;;27.74;42.40;100915.56;6024369;28;20389;-63
2022/08/03 07:23:37;;;;;;;4.67;1.87;;;;;;;27.37;42.42;100909.84;6022720;28;20034;-66
2022/08/03 07:26:32;;;;;;;2.85;1.88;;;;;;;27.72;43.73;100917.72;6025399;28;20030;-66
2022/08/03 07:29:28;;;;;;;5.00;2.03;;;;;;;27.68;42.04;100922.03;6023739;28;20473;-64
2022/08/03 07:32:24;;;;;;;3.70;1.83;;;;;;;27.42;42.35;100917.34;6021573;28;20140;-63
2022/08/03 07:35:19;;;;;;;3.75;2.05;;;;;;;27.91;42.40;100916.31;6023564;28;20022;-65
2022/08/03 07:38:15;;;;;;;4.53;2.00;;;;;;;27.71;41.97;100916.06;6021290;28;20085;-64
2022/08/03 07:41:10;;;;;;;9.35;2.03;;;;;;;27.91;41.44;100921.75;6017238;28;20022;-65
2022/08/03 07:44:05;;;;;;;2.70;1.93;;;;;;;27.97;42.46;100922.63;6024001;28;20030;-65
2022/08/03 07:47:01;;;;;;;3.30;2.20;;;;;;;28.09;42.14;100935.09;6021232;28;20274;-65
2022/08/03 07:49:56;;;;;;;4.07;1.90;;;;;;;28.09;41.54;100924.19;6022579;28;20049;-64
2022/08/03 07:52:52;;;;;;;3.72;2.10;;;;;;;28.10;41.53;100922.28;6020461;28;20428;-65
2022/08/03 07:55:48;;;;;;;3.63;1.60;;;;;;;28.24;41.15;100929.81;6021923;28;20034;-65
2022/08/03 07:58:43;;;;;;;2.87;1.80;;;;;;;28.43;40.59;100913.09;6020380;28;20081;-64
2022/08/03 08:01:38;;;;;;;3.37;1.87;;;;;;;28.35;41.37;100907.00;6021282;28;20128;-64
2022/08/03 08:04:34;;;;;;;4.20;1.80;;;;;;;28.48;41.61;100913.97;6022747;28;20379;-64
2022/08/03 08:07:29;;;;;;;5.97;2.27;;;;;;;28.82;40.00;100909.06;6016632;28;20471;-66
2022/08/03 08:10:25;;;;;;;5.07;2.13;;;;;;;28.97;40.03;100903.75;6020987;28;21052;-67
2022/08/03 08:13:20;;;;;;;3.95;2.05;;;;;;;28.92;39.55;100911.88;6022438;28;20030;-66
2022/08/03 08:16:16;;;;;;;2.72;1.50;;;;;;;29.06;39.52;100896.69;6022783;28;20723;-65
2022/08/03 08:19:13;;;;;;;3.73;1.57;;;;;;;29.26;38.88;100896.84;6023071;28;20034;-65
2022/08/03 08:22:08;;;;;;;3.47;1.70;;;;;;;29.56;38.59;100900.81;6017321;28;20278;-65
2022/08/03 08:25:04;;;;;;;4.73;1.90;;;;;;;29.65;38.66;100904.69;6022595;28;20485;-64
2022/08/03 08:28:03;;;;;;;3.03;1.92;;;;;;;29.74;38.76;100895.69;6021216;28;20121;-65
2022/08/03 08:30:58;;;;;;;3.75;1.92;;;;;;;29.54;38.64;100886.59;6019283;28;20030;-65
2022/08/03 08:33:54;;;;;;;2.53;1.55;;;;;;;29.63;38.91;100895.91;6023784;28;20081;-66
2022/08/03 08:36:49;;;;;;;3.23;1.83;;;;;;;29.56;38.96;100895.34;6023648;28;20037;-66
2022/08/03 08:39:44;;;;;;;3.80;1.50;;;;;;;29.35;39.44;100899.91;6023341;28;20135;-65
2022/08/03 08:42:41;;;;;;;3.93;2.00;;;;;;;29.63;39.80;100890.44;6024062;28;20266;-66
2022/08/03 08:45:36;;;;;;;5.60;1.77;;;;;;;30.08;38.96;100896.13;6024114;28;20030;-65
2022/08/03 08:48:32;;;;;;;2.20;1.50;;;;;;;30.09;38.60;100895.00;6022306;28;20121;-65
2022/08/03 08:51:30;;;;;;;10.70;1.90;;;;;;;30.38;37.60;100892.63;6022828;28;20061;-64
2022/08/03 08:54:26;;;;;;;5.13;1.83;;;;;;;30.58;38.03;100892.63;6023794;28;20054;-64
2022/08/03 08:57:25;;;;;;;3.40;1.85;;;;;;;30.64;37.79;100886.06;6021840;28;20519;-65
2022/08/03 09:00:20;;;;;;;3.33;1.73;;;;;;;30.88;37.40;100892.63;6023150;28;20038;-64
2022/08/03 09:03:16;;;;;;;4.55;1.60;;;;;;;30.34;37.76;100892.31;6022155;28;20030;-63
2022/08/03 09:06:12;;;;;;;3.83;1.60;;;;;;;30.34;37.96;100884.09;6020154;28;20026;-64
2022/08/03 09:09:07;;;;;;;3.22;1.52;;;;;;;30.63;36.73;100885.22;6021463;28;20030;-64
2022/08/03 09:12:02;;;;;;;3.13;1.57;;;;;;;30.64;37.84;100886.06;6036098;28;20042;-65
2022/08/03 09:15:36;;;;;;;4.20;1.70;;;;;;;30.49;38.46;100889.59;6021031;28;20038;-65
2022/08/03 09:18:32;;;;;;;4.53;1.65;;;;;;;30.47;37.45;100880.84;6016557;28;20328;-64
2022/08/03 09:21:30;;;;;;;5.30;1.90;;;;;;;30.93;36.04;100881.66;6020763;28;20065;-63
2022/08/03 09:24:25;;;;;;;3.83;1.90;;;;;;;31.07;36.41;100879.19;6020864;28;20157;-65
2022/08/03 09:27:21;;;;;;;4.40;1.90;;;;;;;31.30;36.68;100878.59;6014714;28;20046;-65
2022/08/03 09:30:17;;;;;;;5.65;1.70;;;;;;;31.23;36.11;100875.31;6018987;28;20034;-65
2022/08/03 09:33:16;;;;;;;4.28;1.70;;;;;;;30.91;37.90;100878.38;6019936;28;20103;-66
2022/08/03 09:36:36;;;;;;;6.72;1.98;;;;;;;31.51;36.53;100877.44;6021002;28;20065;-66
2022/08/03 09:39:36;;;;;;;5.32;1.90;;;;;;;31.68;35.32;100879.84;6016454;28;20035;-66
2022/08/03 09:42:36;;;;;;;4.00;1.55;;;;;;;31.47;36.73;100876.38;6013717;28;20034;-66
2022/08/03 09:45:38;;;;;;;5.57;1.63;;;;;;;31.59;35.31;100876.84;6021155;28;20041;-65
2022/08/03 09:48:35;;;;;;;2.78;1.90;;;;;;;31.43;35.15;100877.16;6019295;28;20036;-66
2022/08/03 09:51:30;;;;;;;3.08;1.92;;;;;;;31.64;36.16;100874.09;6020396;28;20038;-65
2022/08/03 09:54:30;;;;;;;6.22;2.13;;;;;;;31.80;35.05;100872.91;6019039;28;20713;-65
2022/08/03 09:57:26;;;;;;;4.07;1.75;;;;;;;32.12;34.30;100877.16;6019927;28;20026;-67
2022/08/03 10:00:21;;;;;;;5.35;1.65;;;;;;;32.18;34.00;100860.34;6017304;28;20549;-64
2022/08/03 10:03:17;;;;;;;4.33;1.70;;;;;;;31.73;34.50;100866.91;6020728;28;20038;-66
2022/08/03 10:06:18;;;;;;;3.90;1.70;;;;;;;31.55;35.56;100867.56;6019932;28;20037;-64
2022/08/03 10:09:15;;;;;;;7.72;1.55;;;;;;;31.31;35.50;100861.03;6021237;28;20377;-64
2022/08/03 10:12:12;;;;;;;6.82;1.90;;;;;;;31.77;34.80;100867.97;6019545;28;20032;-65
2022/08/03 10:15:09;;;;;;;1.92;1.15;;;;;;;31.83;35.42;100855.88;6020780;28;20037;-65
2022/08/03 10:18:04;;;;;;;7.72;2.00;;;;;;;32.13;34.62;100859.56;6022535;28;20077;-65
2022/08/03 10:21:04;;;;;;;2.60;1.55;;;;;;;32.38;34.15;100846.47;6024025;28;20096;-66
2022/08/03 10:24:04;;;;;;;3.60;1.63;;;;;;;32.77;34.01;100838.19;6024654;28;20041;-66
2022/08/03 10:27:02;;;;;;;4.65;1.65;;;;;;;32.64;33.54;100854.53;6015617;28;20033;-66
2022/08/03 10:30:03;;;;;;;2.83;1.58;;;;;;;32.43;33.98;100851.09;6025039;28;20050;-67
2022/08/03 10:33:08;;;;;;;7.05;2.08;;;;;;;32.36;33.10;100854.19;6023040;28;20038;-67
2022/08/03 10:36:05;;;;;;;3.53;1.85;;;;;;;32.25;33.75;100846.31;6024452;28;20141;-63
2022/08/03 10:39:01;;;;;;;3.38;1.92;;;;;;;31.93;34.04;100840.47;6026810;28;20393;-63
2022/08/03 10:41:57;;;;;;;5.07;2.10;;;;;;;31.70;34.12;100840.03;6020777;28;20027;-66
2022/08/03 10:45:06;;;;;;;3.35;1.77;;;;;;;32.23;33.76;100860.31;6022279;28;20524;-67
2022/08/03 10:48:03;;;;;;;3.28;2.00;;;;;;;31.85;34.07;100852.03;6022846;28;20030;-64
2022/08/03 10:50:59;;;;;;;2.58;1.63;;;;;;;32.09;34.08;100842.88;6025861;28;20035;-66
2022/08/03 10:53:54;;;;;;;3.70;1.90;;;;;;;32.20;33.64;100838.13;6024811;28;20041;-64
2022/08/03 11:00:06;;;;;;;5.00;2.00;;;;;;;32.82;32.61;100835.38;6025684;28;20741;-66
2022/08/03 11:03:01;;;;;;;2.47;1.67;;;;;;;33.02;32.13;100833.53;6021571;28;20034;-65
2022/08/03 11:06:17;;;;;;;5.22;2.20;;;;;;;32.60;33.36;100815.81;6024643;28;20100;-65
2022/08/03 11:09:15;;;;;;;3.35;1.77;;;;;;;32.76;32.71;100820.06;6021776;28;20081;-65
2022/08/03 11:12:32;;;;;;;3.00;2.00;;;;;;;32.62;33.57;100824.59;6023523;28;20030;-65
2022/08/03 11:15:34;;;;;;;2.50;1.65;;;;;;;32.52;32.53;100827.41;6018000;28;20064;-64
2022/08/03 11:18:31;;;;;;;4.32;2.33;;;;;;;32.64;32.35;100825.09;6023517;28;20034;-67
2022/08/03 11:24:49;;;;;;;4.30;2.10;;;;;;;32.52;33.67;100821.09;6020292;28;20035;-65
2022/08/03 11:27:45;;;;;;;3.92;1.85;;;;;;;33.25;32.91;100822.56;6024685;28;20724;-66
2022/08/03 11:30:40;;;;;;;4.93;2.17;;;;;;;33.21;32.82;100809.69;6024455;28;20034;-65
2022/08/03 11:33:35;;;;;;;3.87;2.33;;;;;;;33.12;32.02;100800.44;6025155;28;20080;-65
2022/08/03 11:37:09;;;;;;;3.10;2.10;;;;;;;33.23;31.84;100812.97;6024956;28;20368;-65
2022/08/03 11:40:05;;;;;;;3.80;2.22;;;;;;;33.31;32.35;100804.06;6024152;28;20045;-66
2022/08/03 11:43:03;;;;;;;5.35;2.15;;;;;;;33.31;31.73;100799.38;6021666;28;20042;-65
2022/08/03 11:46:12;;;;;;;3.65;1.65;;;;;;;33.53;31.29;100801.56;6025041;28;20034;-65
2022/08/03 11:49:08;;;;;;;5.95;2.50;;;;;;;33.74;30.71;100805.69;6025794;28;20031;-64
2022/08/03 11:52:03;;;;;;;2.95;2.17;;;;;;;33.74;31.67;100797.44;6025227;28;20382;-65
2022/08/03 11:54:59;;;;;;;4.50;2.20;;;;;;;34.13;30.84;100790.81;6024571;28;20105;-66
2022/08/03 11:57:58;;;;;;;3.07;1.87;;;;;;;34.51;29.79;100800.63;6024709;28;20076;-64
2022/08/03 12:01:03;;;;;;;3.35;2.20;;;;;;;34.53;29.18;100788.19;6023656;28;20288;-65
2022/08/03 12:04:03;;;;;;;;;;;;;;;33.62;30.58;100794.31;6024123;28;20144;-65
2022/08/03 12:06:59;;;;;;;4.80;2.05;;;;;;;34.38;29.90;100790.41;6023824;28;19921;-64
2022/08/03 12:10:13;;;;;;;3.30;1.85;;;;;;;34.56;29.47;100798.63;6024569;28;20087;-64
2022/08/03 12:13:08;;;;;;;3.65;1.83;;;;;;;34.35;29.45;100796.50;6024576;28;20141;-65
2022/08/03 12:16:04;;;;;;;2.87;1.90;;;;;;;33.70;30.39;100795.59;6024222;28;20044;-65
2022/08/03 12:19:02;;;;;;;3.03;2.00;;;;;;;33.54;30.76;100801.25;6023900;28;20281;-65
2022/08/03 12:21:57;;;;;;;3.58;1.92;;;;;;;33.68;29.26;100795.88;6023194;28;20682;-64
2022/08/03 12:24:52;;;;;;;5.37;2.17;;;;;;;33.82;30.48;100791.25;6023886;28;20033;-65
2022/08/03 12:27:48;;;;;;;3.53;2.00;;;;;;;34.37;29.49;100794.25;6023962;28;20077;-65
2022/08/03 12:30:46;;;;;;;4.75;1.90;;;;;;;34.56;28.71;100786.75;6023203;28;20037;-65
2022/08/03 12:34:02;;;;;;;3.05;1.95;;;;;;;34.99;28.59;100788.16;6023933;28;20417;-66
2022/08/03 12:36:58;;;;;;;3.45;2.20;;;;;;;35.38;27.49;100784.06;6022909;28;20105;-65
2022/08/03 12:39:56;;;;;;;2.70;1.80;;;;;;;34.73;27.88;100778.75;6022584;28;20114;-65
2022/08/03 12:42:51;;;;;;;3.42;1.83;;;;;;;34.40;28.02;100783.47;6021742;28;20030;-66
2022/08/03 12:45:47;;;;;;;3.30;1.95;;;;;;;34.77;28.04;100782.53;6023870;28;20732;-66
2022/08/03 12:48:58;;;;;;;3.13;1.80;;;;;;;35.23;26.50;100776.91;6022509;28;20033;-66
2022/08/03 12:51:57;;;;;;;3.50;1.77;;;;;;;35.19;27.57;100762.94;6020763;28;20034;-67
2022/08/03 12:54:56;;;;;;;;;;;;;;;35.35;27.16;100776.41;6022163;28;21174;-66
2022/08/03 12:57:51;;;;;;;3.13;2.10;;;;;;;35.26;27.75;100760.56;6022057;28;19918;-67
2022/08/03 13:00:55;;;;;;;3.17;1.70;;;;;;;35.33;27.25;100767.63;6023014;28;20058;-66
2022/08/03 13:03:52;;;;;;;3.95;2.05;;;;;;;35.46;27.50;100761.25;6022825;28;20030;-67
2022/08/03 13:06:56;;;;;;;5.50;1.92;;;;;;;35.10;27.74;100755.69;6023050;28;20037;-67
2022/08/03 13:09:53;;;;;;;3.90;2.15;;;;;;;35.03;27.23;100758.84;6023255;28;20176;-66
2022/08/03 13:12:49;;;;;;;2.72;1.90;;;;;;;34.93;28.59;100761.78;6022368;28;20053;-66
2022/08/03 13:15:44;;;;;;;3.95;2.05;;;;;;;34.59;28.97;100755.88;6022803;28;20038;-65
2022/08/03 13:18:40;;;;;;;4.00;1.77;;;;;;;34.71;28.73;100753.41;6023061;28;20450;-67
2022/08/03 13:21:35;;;;;;;2.67;1.77;;;;;;;34.96;27.04;100758.44;6021797;28;20050;-66
2022/08/03 13:24:31;;;;;;;2.67;1.63;;;;;;;35.00;27.61;100753.94;6022111;28;20042;-66
2022/08/03 13:27:28;;;;;;;3.80;1.83;;;;;;;34.76;27.99;100750.59;6015301;28;20038;-66
2022/08/03 13:30:23;;;;;;;3.38;1.83;;;;;;;34.56;27.99;100751.78;6022148;28;20034;-66
2022/08/03 13:33:18;;;;;;;4.40;1.85;;;;;;;34.65;27.94;100746.38;6022218;28;20425;-65
2022/08/03 13:36:13;;;;;;;5.53;1.93;;;;;;;34.69;28.30;100750.97;6022488;28;20034;-67
2022/08/03 13:39:09;;;;;;;3.33;1.83;;;;;;;35.30;26.71;100740.66;6022356;28;20027;-66
2022/08/03 13:42:04;;;;;;;3.38;1.90;;;;;;;35.20;27.05;100733.41;6023209;28;20080;-66
2022/08/03 13:45:00;;;;;;;3.05;2.00;;;;;;;35.54;26.26;100738.44;6019285;28;20026;-66
2022/08/03 13:47:59;;;;;;;2.47;1.73;;;;;;;35.43;27.19;100735.09;6022263;28;20037;-67
2022/08/03 13:50:54;;;;;;;4.75;1.77;;;;;;;35.34;26.77;100716.81;6021413;28;20030;-66
2022/08/03 13:53:51;;;;;;;6.77;1.70;;;;;;;34.95;26.77;100734.72;6019344;28;20033;-67
2022/08/03 13:56:51;;;;;;;4.18;1.90;;;;;;;34.73;27.02;100731.91;6020891;28;20081;-67
2022/08/03 13:59:48;;;;;;;3.72;2.03;;;;;;;34.77;27.49;100726.56;6021795;28;20465;-64
2022/08/03 14:02:43;;;;;;;6.10;2.10;;;;;;;34.88;27.78;100734.34;6021408;28;20490;-64